AirNav   Air Wisconsin Up To $57,000 Bonus
 
 1065 users online  

FL63 Westgate Villas Helipad
Kissimmee, Florida, USA


FAA INFORMATION EFFECTIVE 07 NOVEMBER 2019

Location

FAA Identifier: FL63
Lat/Long: 28-19-53.2400N 081-35-36.0100W
28-19.887333N 081-35.600167W
28.3314556,-81.5933361
(estimated)
Elevation: 112 ft. / 34 m (estimated)
From city: 10 miles WNW of KISSIMMEE, FL
Time zone: UTC -5 (UTC -4 during Daylight Saving Time)
Zip code: 34747

Heliport Operations

Heliport use: Private use. Permission required prior to landing
Activation date: 11/2018
Control tower: no
ARTCC: JACKSONVILLE CENTER
FSS: SAINT PETERSBURG FLIGHT SERVICE STATION
Attendance: 
Segmented circle: no

Heliport Communications

WX AWOS-3PT at ISM (9 nm E): 128.775 (407-847-0533)
WX ASOS at MCO (16 nm E): PHONE 407-855-5235
WX ASOS at GIF (18 nm SW): 133.675 (863-956-2097)
WX ASOS at ORL (19 nm NE): PHONE 407-658-6753

Nearby radio navigation aids

VOR radial/distance  VOR name  Freq  Var
ORLr227/18.6ORLANDO VORTAC112.2000E
LALr046/30.4LAKELAND VORTAC116.0001E

Heliport Services

Runway Information

Helipad H1

Dimensions: 33 x 33 ft. / 10 x 10 m
Surface: asphalt, in fair condition
Latitude: 28-19.887333N
Longitude: 081-35.600167W
Elevation: 112.0 ft.
Traffic pattern: leftleft

Heliport Ownership and Management from official FAA records

Ownership: Privately-owned
Owner: WESTGATE VILLAS RESORT, LTD
5519 W. HWY 192
KISSIMMEE, FL 34747
Phone 407-310-4363
Manager: RICK VIOLETTE
10787 ROYAL CYPRESS WAY
KISSIMMEE, FL 34747
Phone 407-310-4363

Heliport Operational Statistics

Aircraft based on the field: 2
Single engine airplanes: 1
Helicopters: 1
    

Instrument Procedures

There are no published instrument procedures at FL63.

Some nearby airports with instrument procedures:

KISM - Kissimmee Gateway Airport (9 nm E)
KMCO - Orlando International Airport (16 nm E)
KGIF - Winter Haven Regional Airport (18 nm SW)
KORL - Executive Airport (19 nm NE)
X04 - Orlando Apopka Airport (23 nm N)
 
Loc | Ops | Rwys | IFR | FBO | Links
Com | Nav | Svcs | Stats | Notes
Aerial photo
No photo
 
Airport distance calculator
Flying to Westgate Villas Helipad? Find the distance to fly.

From to FL63

Sunrise and sunset
Times for 17-Nov-2019
 Local
(UTC-5)
 Zulu
(UTC)
Morning civil twilight06:2611:26
Sunrise06:5111:51
Sunset17:3222:32
Evening civil twilight17:5722:57

Current date and time
Zulu (UTC)  18-Nov-2019 00:48:14
Local (UTC-5)  17-Nov-2019 19:48:14
 
METAR
KISM 
9nm E 
172356Z 36005KT 10SM OVC011 12/10 A2992 RMK AO2 SLP131 6//// T01220100 10139 20117 53005 PNO $
KMCO 
15nm E 
172353Z 32006KT 10SM OVC013 12/08 A2989 RMK SLP121 T01220083 10139 20122 58003
KGIF 
18nm SW 
180037Z AUTO 03003KT 10SM OVC009 12/09 A2992 RMK AO2 T01170094
KORL 
19nm NE 
172353Z 32005KT 10SM OVC012 12/09 A2990 RMK AO2 SLP129 T01220089 10133 20122 53001
TAF
KISM 
9nm E 
172107Z 1721/1818 32008KT P6SM OVC015 FM180000 34004KT P6SM BKN015 FM180600 33004KT P6SM SCT015 FM181500 29007KT P6SM FEW035
KMCO 
15nm E 
172104Z 1721/1824 33009KT P6SM OVC014 FM180200 33005KT P6SM BKN015 FM180600 32004KT P6SM SCT015 FM181500 29008KT P6SM FEW035
NOTAMs
Click for the latest NOTAMs
NOTAMs are issued by the DoD/FAA and will open in a separate window not controlled by AirNav.

 

 
 

Would you like to see your business listed on this page?

 If your business provides an interesting product or service to pilots, flight crews, aircraft, or users of the Westgate Villas Helipad, you should consider listing it here.  To start the listing process, click on the button below
 
Add a business
 

Other Pages about Westgate Villas Helipad

Update a link
 
Copyright © AirNav, LLC. All rights reserved. Privacy Policy  Contact